createdAt,value
2018-03-04T00:00:51.819Z,48.67
2018-03-04T00:03:21.122Z,46.97
2018-03-04T00:05:50.629Z,46.47
2018-03-04T00:08:25.069Z,51.58
2018-03-04T00:10:54.681Z,46.00
2018-03-04T00:13:25.000Z,44.38
2018-03-04T00:15:55.430Z,46.45
2018-03-04T00:18:25.704Z,48.08
2018-03-04T00:20:55.255Z,47.05
2018-03-04T00:23:25.623Z,44.80
2018-03-04T00:25:55.292Z,45.33
2018-03-04T00:28:25.450Z,43.95
2018-03-04T00:30:55.134Z,46.50
2018-03-04T00:33:25.392Z,44.53
2018-03-04T00:35:55.350Z,43.22
2018-03-04T00:38:25.813Z,45.28
2018-03-04T00:40:55.620Z,44.58
2018-03-04T00:43:25.070Z,46.03
2018-03-04T00:45:54.635Z,44.40
2018-03-04T00:48:24.463Z,45.40
2018-03-04T00:50:54.508Z,46.70
2018-03-04T00:53:24.326Z,43.70
2018-03-04T00:55:54.099Z,45.03
2018-03-04T00:58:23.804Z,45.55
2018-03-04T01:00:53.629Z,44.20
2018-03-04T01:03:24.207Z,47.20
2018-03-04T01:05:54.843Z,45.17
2018-03-04T01:08:25.364Z,46.55
2018-03-04T01:10:55.749Z,47.03
2018-03-04T01:13:25.528Z,46.00
2018-03-04T01:15:55.136Z,46.03
2018-03-04T01:18:24.725Z,46.50
2018-03-04T01:20:55.180Z,44.63
2018-03-04T01:23:24.820Z,45.67
2018-03-04T01:25:54.804Z,48.85
2018-03-04T01:28:24.844Z,44.65
2018-03-04T01:30:55.481Z,46.95
2018-03-04T01:33:25.429Z,46.40
2018-03-04T01:35:55.099Z,47.88
2018-03-04T01:38:29.205Z,46.58
2018-03-04T01:40:59.229Z,46.75
2018-03-04T01:43:29.060Z,50.85
2018-03-04T01:45:58.541Z,49.72
2018-03-04T01:48:28.376Z,47.03
2018-03-04T01:50:58.212Z,49.40
2018-03-04T01:53:28.784Z,48.22
2018-03-04T01:55:58.464Z,48.20
2018-03-04T01:58:29.073Z,47.42
2018-03-04T02:00:59.563Z,47.72
2018-03-04T02:03:33.633Z,47.17
2018-03-04T02:06:03.987Z,48.92
2018-03-04T02:08:33.688Z,48.50
2018-03-04T02:11:03.364Z,49.53
2018-03-04T02:13:33.890Z,46.47
2018-03-04T02:16:04.813Z,48.87
2018-03-04T02:18:34.596Z,49.20
2018-03-04T02:21:04.325Z,49.97
2018-03-04T02:23:33.740Z,50.08
2018-03-04T02:26:03.633Z,49.38
2018-03-04T02:28:32.944Z,48.70
2018-03-04T02:31:02.381Z,49.22
2018-03-04T02:33:32.846Z,49.72
2018-03-04T02:36:03.084Z,49.65
2018-03-04T02:39:34.958Z,51.28
2018-03-04T02:42:04.640Z,51.42
2018-03-04T02:44:34.542Z,50.03
2018-03-04T02:47:04.372Z,49.28
2018-03-04T02:49:33.939Z,48.35
2018-03-04T02:52:09.285Z,54.47
2018-03-04T02:54:39.648Z,51.00
2018-03-04T02:57:09.205Z,50.10
2018-03-04T02:59:39.254Z,51.20
2018-03-04T03:02:08.581Z,53.45
2018-03-04T03:04:38.184Z,50.53
2018-03-04T03:07:07.863Z,50.50
2018-03-04T03:09:37.366Z,48.40
2018-03-04T03:12:06.559Z,48.90
2018-03-04T03:14:37.114Z,52.65
2018-03-04T03:17:13.124Z,49.22
2018-03-04T03:19:43.093Z,50.10
2018-03-04T03:22:12.774Z,49.17
2018-03-04T03:24:41.989Z,52.20
2018-03-04T03:27:11.456Z,51.63
2018-03-04T03:29:41.471Z,53.25
2018-03-04T03:32:11.740Z,51.03
2018-03-04T03:34:41.452Z,54.00
2018-03-04T03:37:10.568Z,51.88
2018-03-04T03:39:40.083Z,54.08
2018-03-04T03:42:09.515Z,53.63
2018-03-04T03:44:39.460Z,52.60
2018-03-04T03:47:08.982Z,52.28
2018-03-04T03:49:38.308Z,52.67
2018-03-04T03:52:07.986Z,51.72
2018-03-04T03:54:37.472Z,52.03
2018-03-04T03:57:06.618Z,52.55
2018-03-04T03:59:35.766Z,52.90
2018-03-04T04:02:05.336Z,52.88
2018-03-04T04:48:15.525Z,51.75
2018-03-04T04:50:44.716Z,54.15
2018-03-04T04:53:14.233Z,49.47
2018-03-04T04:55:43.348Z,53.25
2018-03-04T04:58:17.533Z,52.00
2018-03-04T05:00:46.672Z,54.95
2018-03-04T05:03:15.917Z,53.67
2018-03-04T05:05:45.216Z,54.90
2018-03-04T05:08:14.326Z,55.03
2018-03-04T05:10:43.746Z,56.17
2018-03-04T05:13:13.039Z,54.53
2018-03-04T05:15:42.102Z,56.20
2018-03-04T05:18:11.515Z,55.47
2018-03-04T05:20:42.831Z,57.53
2018-03-04T05:23:12.510Z,58.58
2018-03-04T05:25:42.012Z,54.90
2018-03-04T05:28:12.081Z,59.47
2018-03-04T05:30:41.423Z,55.47
2018-03-04T05:33:11.087Z,57.35
2018-03-04T05:35:40.945Z,57.42
2018-03-04T05:38:10.187Z,55.58
2018-03-04T05:40:40.472Z,60.03
2018-03-04T05:43:09.772Z,58.00
2018-03-04T05:45:39.183Z,55.95
2018-03-04T05:48:08.435Z,58.30
2018-03-04T05:50:37.681Z,58.63
2018-03-04T05:53:07.439Z,54.88
2018-03-04T05:55:36.746Z,55.85
2018-03-04T05:58:05.972Z,58.10
2018-03-04T06:00:35.288Z,59.15
2018-03-04T06:03:04.488Z,57.03
2018-03-04T06:05:33.612Z,57.08
2018-03-04T06:08:03.653Z,55.17
2018-03-04T06:10:33.037Z,55.60
2018-03-04T06:13:02.892Z,55.75
2018-03-04T06:15:32.097Z,55.72
2018-03-04T06:18:03.588Z,56.92
2018-03-04T06:21:35.469Z,58.40
2018-03-04T06:24:05.752Z,55.40
2018-03-04T06:26:35.384Z,58.83
2018-03-04T06:29:04.780Z,56.75
2018-03-04T06:31:34.110Z,58.90
2018-03-04T06:34:04.567Z,60.97
2018-03-04T06:36:34.225Z,58.72
2018-03-04T06:39:03.938Z,56.90
2018-03-04T06:41:33.507Z,57.10
2018-03-04T06:44:02.936Z,57.60
2018-03-04T06:46:32.379Z,57.28
2018-03-04T06:49:02.944Z,58.03
2018-03-04T06:51:32.890Z,56.97
2018-03-04T06:54:03.506Z,56.47
2018-03-04T06:56:33.070Z,58.30
2018-03-04T06:59:02.618Z,60.17
2018-03-04T07:01:32.380Z,58.53
2018-03-04T07:04:02.939Z,57.88
2018-03-04T07:06:36.087Z,57.33
2018-03-04T07:09:06.537Z,60.80
2018-03-04T07:11:36.079Z,54.65
2018-03-04T07:14:05.531Z,56.65
2018-03-04T07:16:36.222Z,57.88
2018-03-04T07:19:06.319Z,57.92
2018-03-04T07:21:36.027Z,57.72
2018-03-04T07:24:05.635Z,57.70
2018-03-04T07:26:35.159Z,56.55
2018-03-04T07:29:05.060Z,56.25
2018-03-04T07:31:34.824Z,57.25
2018-03-04T07:34:05.355Z,54.25
2018-03-04T07:36:35.882Z,60.88
2018-03-04T07:39:06.794Z,57.42
2018-03-04T07:41:36.223Z,53.72
2018-03-04T07:44:06.765Z,54.90
2018-03-04T07:46:36.469Z,55.55
2018-03-04T07:49:06.926Z,53.40
2018-03-04T07:51:36.606Z,52.30
2018-03-04T07:54:07.987Z,56.30
2018-03-04T07:56:37.688Z,52.40
2018-03-04T07:59:07.565Z,52.45
2018-03-04T08:01:38.077Z,57.65
2018-03-04T08:04:07.828Z,57.10
2018-03-04T08:06:37.488Z,59.03
2018-03-04T08:09:07.458Z,56.53
2018-03-04T08:11:37.178Z,57.45
2018-03-04T08:15:09.195Z,58.90
2018-03-04T08:17:38.833Z,58.20
2018-03-04T08:20:08.545Z,57.58
2018-03-04T08:22:38.109Z,58.92
2018-03-04T08:25:16.214Z,61.60
2018-03-04T08:28:51.169Z,55.30
2018-03-04T08:31:20.719Z,58.58
2018-03-04T08:33:50.411Z,56.17
2018-03-04T08:36:21.542Z,56.50
2018-03-04T08:38:53.162Z,57.05
2018-03-04T08:41:24.192Z,59.95
2018-03-04T08:43:53.920Z,61.33
2018-03-04T08:46:23.617Z,56.92
2018-03-04T08:48:53.209Z,57.83
2018-03-04T08:51:33.086Z,55.25
2018-03-04T08:54:17.022Z,58.87
2018-03-04T08:56:46.773Z,62.00
2018-03-04T08:59:16.900Z,57.17
2018-03-04T09:01:46.352Z,60.88
2018-03-04T09:04:15.929Z,58.90
2018-03-04T09:06:45.474Z,57.60
2018-03-04T09:09:16.366Z,58.58
2018-03-04T09:12:48.088Z,56.95
2018-03-04T09:15:17.733Z,57.58
2018-03-04T09:17:51.768Z,57.00
2018-03-04T09:20:21.552Z,56.45
2018-03-04T09:22:57.531Z,58.10
2018-03-04T09:25:27.120Z,56.22
2018-03-04T09:27:56.529Z,55.60
2018-03-04T09:30:26.480Z,56.70
2018-03-04T09:32:56.191Z,58.35
2018-03-04T09:35:25.838Z,54.75
2018-03-04T09:37:56.487Z,58.55
2018-03-04T09:40:26.302Z,57.40
2018-03-04T09:42:56.320Z,57.50
2018-03-04T09:45:26.007Z,61.08
2018-03-04T09:47:56.258Z,55.60
2018-03-04T09:50:26.983Z,58.22
2018-03-04T09:52:56.578Z,57.22
2018-03-04T09:55:27.308Z,57.72
2018-03-04T09:57:57.851Z,56.83
2018-03-04T10:00:27.655Z,53.47
2018-03-04T10:02:58.435Z,55.40
2018-03-04T10:05:28.358Z,55.78
2018-03-04T10:07:58.222Z,56.85
2018-03-04T10:10:28.652Z,55.25
2018-03-04T10:12:58.490Z,53.85
2018-03-04T10:15:28.435Z,55.45
2018-03-04T10:17:58.738Z,54.17
2018-03-04T10:20:28.243Z,55.42
2018-03-04T10:22:57.764Z,53.78
2018-03-04T10:25:28.007Z,55.88
2018-03-04T10:27:58.211Z,53.50
2018-03-04T10:30:27.577Z,55.10
2018-03-04T10:32:57.141Z,53.50
2018-03-04T10:35:27.494Z,54.33
2018-03-04T10:37:57.108Z,47.53
2018-03-04T10:40:27.669Z,51.67
2018-03-04T10:42:57.093Z,49.90
2018-03-04T10:45:26.482Z,50.92
2018-03-04T10:47:56.093Z,47.20
2018-03-04T10:50:26.278Z,50.75
2018-03-04T10:52:55.879Z,49.65
2018-03-04T10:55:25.309Z,47.60
2018-03-04T10:57:54.893Z,45.35
2018-03-04T11:00:25.063Z,45.35
2018-03-04T11:02:59.587Z,44.00
2018-03-04T11:05:30.125Z,45.83
2018-03-04T11:08:00.704Z,46.13
2018-03-04T11:10:30.882Z,46.95
2018-03-04T11:13:01.176Z,45.88
2018-03-04T11:15:30.639Z,42.65
2018-03-04T11:18:02.698Z,41.80
2018-03-04T11:20:32.885Z,44.35
2018-03-04T11:23:05.010Z,43.58
2018-03-04T11:25:35.260Z,48.20
2018-03-04T11:28:07.843Z,46.20
2018-03-04T11:30:37.341Z,46.25
2018-03-04T11:33:06.786Z,45.53
2018-03-04T11:35:36.279Z,50.38
2018-03-04T11:38:05.846Z,45.63
2018-03-04T11:40:35.278Z,47.75
2018-03-04T11:43:05.550Z,47.83
2018-03-04T11:45:34.996Z,46.53
2018-03-04T11:48:05.237Z,48.15
2018-03-04T11:50:34.673Z,45.47
2018-03-04T11:53:04.148Z,36.90
2018-03-04T11:55:33.673Z,37.38
2018-03-04T11:58:03.141Z,38.60
2018-03-04T12:00:33.385Z,37.28
2018-03-04T12:03:02.797Z,38.25
2018-03-04T12:05:32.307Z,41.95
2018-03-04T12:08:03.972Z,44.03
2018-03-04T12:10:33.452Z,44.30
2018-03-04T12:13:02.974Z,40.85
2018-03-04T12:15:32.457Z,44.38
2018-03-04T12:18:01.868Z,39.50
2018-03-04T12:20:31.391Z,40.95
2018-03-04T12:23:00.938Z,42.40
2018-03-04T12:25:30.408Z,43.78
2018-03-04T12:27:59.867Z,40.33
2018-03-04T12:30:34.058Z,38.30
2018-03-04T12:33:03.624Z,40.08
2018-03-04T12:35:33.027Z,42.55
2018-03-04T12:38:03.242Z,39.00
2018-03-04T12:40:32.797Z,41.78
2018-03-04T12:43:02.453Z,39.97
2018-03-04T12:45:32.139Z,41.25
2018-03-04T12:48:02.366Z,40.03
2018-03-04T12:50:32.025Z,39.03
2018-03-04T12:53:02.648Z,40.83
2018-03-04T12:55:32.303Z,39.63
2018-03-04T12:58:01.740Z,40.45
2018-03-04T13:00:31.402Z,38.35
2018-03-04T13:03:01.730Z,40.58
2018-03-04T13:05:31.868Z,43.17
2018-03-04T13:08:01.330Z,39.55
2018-03-04T13:10:30.787Z,40.22
2018-03-04T13:13:00.293Z,42.20
2018-03-04T13:15:29.861Z,39.33
2018-03-04T13:17:59.291Z,38.92
2018-03-04T13:20:28.950Z,41.00
2018-03-04T13:22:58.720Z,38.30
2018-03-04T13:25:28.256Z,40.55
2018-03-04T13:27:57.761Z,39.40
2018-03-04T13:30:28.100Z,32.67
2018-03-04T13:32:57.541Z,36.72
2018-03-04T13:35:27.729Z,32.20
2018-03-04T13:37:57.232Z,32.58
2018-03-04T13:40:26.691Z,35.92
2018-03-04T13:42:56.037Z,36.88
2018-03-04T13:45:25.888Z,32.83
2018-03-04T13:47:55.481Z,34.30
2018-03-04T13:50:25.719Z,35.42
2018-03-04T13:52:55.366Z,37.10
2018-03-04T13:55:24.870Z,40.08
2018-03-04T13:57:55.358Z,37.72
2018-03-04T14:00:25.090Z,37.20
2018-03-04T14:02:54.722Z,36.95
2018-03-04T14:05:25.099Z,36.92
2018-03-04T14:09:14.626Z,38.28
2018-03-04T14:11:44.054Z,35.75
2018-03-04T14:14:13.684Z,38.28
2018-03-04T14:16:43.297Z,35.35
2018-03-04T14:19:13.528Z,35.55
2018-03-04T14:21:43.282Z,33.83
2018-03-04T14:24:12.771Z,36.35
2018-03-04T14:26:42.408Z,35.97
2018-03-04T14:29:12.024Z,34.35
2018-03-04T14:31:42.219Z,35.60
2018-03-04T14:34:11.636Z,35.75
2018-03-04T14:36:41.150Z,39.40
2018-03-04T14:39:11.330Z,40.30
2018-03-04T14:41:44.818Z,42.65
2018-03-04T14:44:14.245Z,45.12
2018-03-04T14:46:43.855Z,45.15
2018-03-04T14:49:14.214Z,46.45
2018-03-04T14:51:43.592Z,46.80
2018-03-04T14:54:14.831Z,47.17
2018-03-04T14:56:44.391Z,46.05
2018-03-04T14:59:14.544Z,46.13
2018-03-04T15:01:44.797Z,46.17
2018-03-04T15:04:14.225Z,45.60
2018-03-04T15:06:49.278Z,44.58
2018-03-04T15:09:18.760Z,44.15
2018-03-04T15:11:48.875Z,45.50
2018-03-04T15:14:18.945Z,46.88
2018-03-04T15:16:48.389Z,45.45
2018-03-04T15:19:17.900Z,45.60
2018-03-04T15:21:48.217Z,44.35
2018-03-04T15:24:18.651Z,43.87
2018-03-04T15:26:48.980Z,46.05
2018-03-04T15:29:19.246Z,45.63
2018-03-04T15:31:48.973Z,45.70
2018-03-04T15:34:18.656Z,45.28
2018-03-04T15:36:48.573Z,43.08
2018-03-04T15:39:18.084Z,44.53
2018-03-04T15:41:47.561Z,43.60
2018-03-04T15:44:17.796Z,46.72
2018-03-04T15:46:48.025Z,45.75
2018-03-04T15:49:18.524Z,46.42
2018-03-04T15:51:48.202Z,42.97
2018-03-04T15:54:17.613Z,44.30
2018-03-04T15:56:47.237Z,43.72
2018-03-04T15:59:17.424Z,43.85
2018-03-04T16:01:46.864Z,44.55
2018-03-04T16:04:17.009Z,43.50
2018-03-04T16:06:46.680Z,42.72
2018-03-04T16:09:16.070Z,45.58
2018-03-04T16:11:45.693Z,39.60
2018-03-04T16:14:18.918Z,42.65
2018-03-04T16:16:48.848Z,40.88
2018-03-04T16:19:18.206Z,46.37
2018-03-04T16:21:48.527Z,43.03
2018-03-04T16:24:18.877Z,42.13
2018-03-04T16:26:48.176Z,40.15
2018-03-04T16:29:17.549Z,43.75
2018-03-04T16:31:47.020Z,39.80
2018-03-04T16:34:16.578Z,41.40
2018-03-04T16:36:46.128Z,39.53
2018-03-04T16:39:16.030Z,37.28
2018-03-04T16:41:45.541Z,37.72
2018-03-04T17:18:53.038Z,35.33
2018-03-04T17:21:25.756Z,37.90
2018-03-04T17:24:03.831Z,37.53
2018-03-04T17:26:34.356Z,38.58
2018-03-04T17:29:05.408Z,36.65
2018-03-04T17:31:35.707Z,37.58
2018-03-04T17:34:08.117Z,35.47
2018-03-04T17:36:38.712Z,34.17
2018-03-04T17:39:10.825Z,36.85
2018-03-04T17:41:43.379Z,37.17
2018-03-04T17:44:14.638Z,39.00
2018-03-04T17:46:46.206Z,40.60
2018-03-04T17:49:21.662Z,41.65
2018-03-04T17:51:56.769Z,42.40
2018-03-04T17:54:28.998Z,40.88
2018-03-04T17:56:59.768Z,39.63
2018-03-04T17:59:30.789Z,42.75
2018-03-04T18:02:01.830Z,43.53
2018-03-04T18:04:34.649Z,43.90
2018-03-04T18:07:07.088Z,44.95
2018-03-04T18:09:37.642Z,45.05
2018-03-04T18:12:08.316Z,45.08
2018-03-04T18:14:38.724Z,44.35
2018-03-04T18:17:08.990Z,43.45
2018-03-04T18:19:40.134Z,44.53
2018-03-04T18:22:11.690Z,47.20
2018-03-04T18:24:44.797Z,48.42
2018-03-04T18:27:15.608Z,48.53
2018-03-04T18:29:46.927Z,47.95
2018-03-04T18:32:17.448Z,48.75
2018-03-04T18:34:48.617Z,45.45
2018-03-04T18:37:19.581Z,48.42
2018-03-04T18:39:49.945Z,46.25
2018-03-04T18:42:23.055Z,44.85
2018-03-04T18:44:54.122Z,42.70
2018-03-04T18:47:26.096Z,43.85
2018-03-04T18:50:27.507Z,40.80
2018-03-04T18:52:58.966Z,42.22
2018-03-04T18:55:30.325Z,39.55
2018-03-04T18:58:01.321Z,40.35
2018-03-04T19:00:31.978Z,38.72
2018-03-04T19:03:04.133Z,35.55
2018-03-04T19:05:35.971Z,37.90
2018-03-04T19:08:06.820Z,39.13
2018-03-04T19:10:38.176Z,37.92
2018-03-04T19:13:14.802Z,40.53
2018-03-04T19:15:46.126Z,39.05
2018-03-04T19:18:16.940Z,35.10
2018-03-04T19:20:48.496Z,36.50
2018-03-04T19:23:19.016Z,34.63
2018-03-04T19:25:49.543Z,38.65
2018-03-04T19:28:21.538Z,37.28
2018-03-04T19:30:53.186Z,38.10
2018-03-04T19:33:23.803Z,39.38
2018-03-04T19:35:53.943Z,36.03
2018-03-04T19:38:26.447Z,37.65
2018-03-04T19:41:07.516Z,38.78
2018-03-04T19:43:38.885Z,40.58
2018-03-04T19:46:10.387Z,37.03
2018-03-04T19:48:41.611Z,40.58
2018-03-04T19:51:12.681Z,39.28
2018-03-04T19:53:43.270Z,39.53
2018-03-04T19:56:13.833Z,38.95
2018-03-04T19:58:44.024Z,38.40
2018-03-04T20:01:16.922Z,40.22
2018-03-04T20:03:47.260Z,40.75
2018-03-04T20:06:24.549Z,41.97
2018-03-04T20:08:56.999Z,41.17
2018-03-04T20:11:28.211Z,42.97
2018-03-04T20:14:00.697Z,42.10
2018-03-04T20:16:38.691Z,45.70
2018-03-04T20:19:10.347Z,41.92
2018-03-04T20:21:41.508Z,42.45
2018-03-04T20:24:12.893Z,43.30
2018-03-04T20:26:45.042Z,43.63
2018-03-04T20:29:15.374Z,48.53
2018-03-04T20:31:52.649Z,47.22
2018-03-04T20:34:23.364Z,45.88
2018-03-04T20:36:56.038Z,40.63
2018-03-04T20:39:32.873Z,48.75
2018-03-04T20:42:03.560Z,47.67
2018-03-04T20:44:34.832Z,48.55
2018-03-04T20:47:05.920Z,45.45
2018-03-04T20:49:36.160Z,46.45
2018-03-04T20:52:10.831Z,43.65
2018-03-04T20:55:12.565Z,40.78
2018-03-04T20:57:54.214Z,40.83
2018-03-04T21:00:25.309Z,39.90
2018-03-04T21:02:55.628Z,40.12
2018-03-04T21:05:25.913Z,37.35
2018-03-04T21:07:57.984Z,38.92
2018-03-04T21:10:28.599Z,38.55
2018-03-04T21:13:02.755Z,39.15
2018-03-04T21:15:34.969Z,45.25
2018-03-04T21:18:05.738Z,41.95
2018-03-04T21:20:38.427Z,37.90
2018-03-04T21:23:10.650Z,39.30
2018-03-04T21:25:44.066Z,31.92
2018-03-04T21:28:15.597Z,34.10
2018-03-04T21:30:45.973Z,33.33
2018-03-04T21:33:17.462Z,32.53
2018-03-04T21:35:47.661Z,31.52
2018-03-04T21:38:19.359Z,32.22
2018-03-04T21:40:49.768Z,30.45
2018-03-04T21:43:21.003Z,29.60
2018-03-04T21:45:53.225Z,31.40
2018-03-04T21:48:23.885Z,30.92
2018-03-04T21:50:56.724Z,28.48
2018-03-04T21:53:27.253Z,29.98
2018-03-04T21:55:59.176Z,30.02
2018-03-04T21:58:29.999Z,32.22
2018-03-04T22:01:01.920Z,29.85
2018-03-04T22:03:33.477Z,32.35
2018-03-04T22:06:05.168Z,30.50
2018-03-04T22:08:37.064Z,30.40
2018-03-04T22:12:12.211Z,30.42
2018-03-04T22:14:50.859Z,31.15
2018-03-04T22:17:23.930Z,29.40
2018-03-04T22:19:54.772Z,32.50
2018-03-04T22:22:26.239Z,32.75
2018-03-04T22:24:57.193Z,31.12
2018-03-04T22:27:28.326Z,30.75
2018-03-04T22:29:59.090Z,30.73
2018-03-04T22:32:29.953Z,31.62
2018-03-04T22:35:01.695Z,30.12
2018-03-04T22:41:06.455Z,30.20
2018-03-04T22:43:38.248Z,31.80
2018-03-04T22:46:09.764Z,31.17
2018-03-04T22:48:40.934Z,32.80
2018-03-04T22:51:11.820Z,30.35
2018-03-04T22:53:43.465Z,30.27
2018-03-04T22:56:14.931Z,30.88
2018-03-04T22:58:46.121Z,30.40
2018-03-04T23:01:20.863Z,32.33
2018-03-04T23:03:51.948Z,32.53
2018-03-04T23:06:22.743Z,32.72
2018-03-04T23:08:53.361Z,32.17
2018-03-04T23:11:24.671Z,31.17
2018-03-04T23:13:56.123Z,33.58
2018-03-04T23:16:27.367Z,31.90
2018-03-04T23:18:58.964Z,31.10
2018-03-04T23:21:31.136Z,33.38
2018-03-04T23:24:03.308Z,31.23
2018-03-04T23:26:34.271Z,29.98
2018-03-04T23:29:05.917Z,29.87
2018-03-04T23:31:37.034Z,29.92
2018-03-04T23:34:08.964Z,28.87
2018-03-04T23:36:40.414Z,28.27
2018-03-04T23:39:11.633Z,29.60
2018-03-04T23:41:49.978Z,29.20
2018-03-04T23:44:22.402Z,30.65
2018-03-04T23:46:53.718Z,29.95
2018-03-04T23:49:25.988Z,30.12
2018-03-04T23:51:58.074Z,27.85
2018-03-04T23:54:29.428Z,29.33
2018-03-04T23:57:02.810Z,30.70
2018-03-04T23:59:36.648Z,29.27
